Terminal Aerodrome Forecast
Issued by NWS Upton, NY

Home | Current Version | Previous Version | Text Only | Print | Product List | Glossary On
Versions: 1 2 3 4 5 6 7 8 9 10 11 12 13 14 15 16 17 18 19 20 21 22 23 24 25 26 27 28 29 30 31 32 33 34 35
983
FTUS41 KOKX 241730
TAFEWR
TAF
KEWR 241730Z 2418/2524 26008KT P6SM VCSH OVC050
     FM241900 VRB03KT P6SM VCTS SCT050CB BKN130
     FM250000 VRB03KT P6SM BKN120
     FM251400 28007KT P6SM FEW250
     FM251900 26011KT P6SM FEW250=

USA.gov is the U.S. government's official web portal to all federal, state and local government web resources and services.